sensor_id;sensor_type;location;lat;lon;timestamp;P1;durP1;ratioP1;P2;durP2;ratioP2
24715;SDS011;12822;50.124;8.678;2023-08-06T00:01:52;9.95;;;4.28;;
24715;SDS011;12822;50.124;8.678;2023-08-06T00:04:18;6.85;;;4.18;;
24715;SDS011;12822;50.124;8.678;2023-08-06T00:06:44;4.95;;;4.18;;
24715;SDS011;12822;50.124;8.678;2023-08-06T00:09:10;9.13;;;4.10;;
24715;SDS011;12822;50.124;8.678;2023-08-06T00:11:36;7.75;;;4.00;;
24715;SDS011;12822;50.124;8.678;2023-08-06T00:14:02;5.47;;;4.00;;
24715;SDS011;12822;50.124;8.678;2023-08-06T00:16:28;7.70;;;4.25;;
24715;SDS011;12822;50.124;8.678;2023-08-06T00:18:54;6.13;;;4.18;;
24715;SDS011;12822;50.124;8.678;2023-08-06T00:21:20;7.50;;;4.35;;
24715;SDS011;12822;50.124;8.678;2023-08-06T00:23:46;10.55;;;4.38;;
24715;SDS011;12822;50.124;8.678;2023-08-06T00:26:12;10.38;;;4.20;;
24715;SDS011;12822;50.124;8.678;2023-08-06T00:28:38;5.90;;;4.20;;
24715;SDS011;12822;50.124;8.678;2023-08-06T00:31:04;6.00;;;4.85;;
24715;SDS011;12822;50.124;8.678;2023-08-06T00:33:33;9.13;;;4.38;;
24715;SDS011;12822;50.124;8.678;2023-08-06T00:35:59;9.23;;;4.80;;
24715;SDS011;12822;50.124;8.678;2023-08-06T00:38:25;9.68;;;4.50;;
24715;SDS011;12822;50.124;8.678;2023-08-06T00:40:51;9.63;;;4.32;;
24715;SDS011;12822;50.124;8.678;2023-08-06T00:43:18;9.55;;;4.65;;
24715;SDS011;12822;50.124;8.678;2023-08-06T00:45:44;9.02;;;4.97;;
24715;SDS011;12822;50.124;8.678;2023-08-06T00:48:10;8.52;;;4.82;;
24715;SDS011;12822;50.124;8.678;2023-08-06T00:50:36;8.02;;;4.35;;
24715;SDS011;12822;50.124;8.678;2023-08-06T00:53:02;8.02;;;5.20;;
24715;SDS011;12822;50.124;8.678;2023-08-06T00:55:28;6.57;;;4.25;;
24715;SDS011;12822;50.124;8.678;2023-08-06T00:57:54;8.18;;;4.88;;
24715;SDS011;12822;50.124;8.678;2023-08-06T01:00:21;7.57;;;4.55;;
24715;SDS011;12822;50.124;8.678;2023-08-06T01:02:48;9.40;;;4.45;;
24715;SDS011;12822;50.124;8.678;2023-08-06T01:05:14;10.10;;;4.60;;
24715;SDS011;12822;50.124;8.678;2023-08-06T01:15:49;8.45;;;4.90;;
24715;SDS011;12822;50.124;8.678;2023-08-06T01:18:15;6.55;;;4.97;;
24715;SDS011;12822;50.124;8.678;2023-08-06T01:20:42;11.93;;;4.50;;
24715;SDS011;12822;50.124;8.678;2023-08-06T01:23:08;6.35;;;4.50;;
24715;SDS011;12822;50.124;8.678;2023-08-06T01:25:35;7.13;;;4.22;;
24715;SDS011;12822;50.124;8.678;2023-08-06T01:28:06;9.70;;;4.40;;
24715;SDS011;12822;50.124;8.678;2023-08-06T01:30:34;6.65;;;4.35;;
24715;SDS011;12822;50.124;8.678;2023-08-06T01:33:05;5.30;;;4.35;;
24715;SDS011;12822;50.124;8.678;2023-08-06T01:35:34;5.45;;;4.32;;
24715;SDS011;12822;50.124;8.678;2023-08-06T01:38:01;8.80;;;4.15;;
24715;SDS011;12822;50.124;8.678;2023-08-06T01:40:27;8.02;;;4.38;;
24715;SDS011;12822;50.124;8.678;2023-08-06T01:42:54;5.88;;;4.40;;
24715;SDS011;12822;50.124;8.678;2023-08-06T01:45:20;4.97;;;3.80;;
24715;SDS011;12822;50.124;8.678;2023-08-06T01:47:46;8.10;;;3.47;;
24715;SDS011;12822;50.124;8.678;2023-08-06T01:50:12;5.32;;;3.88;;
24715;SDS011;12822;50.124;8.678;2023-08-06T01:52:38;6.00;;;3.63;;
24715;SDS011;12822;50.124;8.678;2023-08-06T01:55:04;5.13;;;4.00;;
24715;SDS011;12822;50.124;8.678;2023-08-06T01:57:30;5.47;;;4.00;;
24715;SDS011;12822;50.124;8.678;2023-08-06T01:59:56;8.68;;;3.80;;
24715;SDS011;12822;50.124;8.678;2023-08-06T02:02:22;6.30;;;3.88;;
24715;SDS011;12822;50.124;8.678;2023-08-06T02:04:48;5.93;;;4.30;;
24715;SDS011;12822;50.124;8.678;2023-08-06T02:07:14;10.63;;;4.15;;
24715;SDS011;12822;50.124;8.678;2023-08-06T02:09:40;9.15;;;4.28;;
24715;SDS011;12822;50.124;8.678;2023-08-06T02:12:06;6.63;;;3.50;;
24715;SDS011;12822;50.124;8.678;2023-08-06T02:14:33;7.20;;;3.63;;
24715;SDS011;12822;50.124;8.678;2023-08-06T02:16:59;6.10;;;3.28;;
24715;SDS011;12822;50.124;8.678;2023-08-06T02:19:25;8.18;;;3.70;;
24715;SDS011;12822;50.124;8.678;2023-08-06T02:21:51;6.90;;;3.28;;
24715;SDS011;12822;50.124;8.678;2023-08-06T02:24:17;7.07;;;3.38;;
24715;SDS011;12822;50.124;8.678;2023-08-06T02:26:43;6.00;;;3.30;;
24715;SDS011;12822;50.124;8.678;2023-08-06T02:29:09;5.80;;;3.03;;
24715;SDS011;12822;50.124;8.678;2023-08-06T02:31:35;8.48;;;3.40;;
24715;SDS011;12822;50.124;8.678;2023-08-06T02:34:01;8.70;;;3.30;;
24715;SDS011;12822;50.124;8.678;2023-08-06T02:36:27;7.57;;;3.40;;
24715;SDS011;12822;50.124;8.678;2023-08-06T02:38:54;6.45;;;3.45;;
24715;SDS011;12822;50.124;8.678;2023-08-06T02:41:20;6.82;;;3.65;;
24715;SDS011;12822;50.124;8.678;2023-08-06T02:43:46;7.15;;;3.42;;
24715;SDS011;12822;50.124;8.678;2023-08-06T02:46:12;5.93;;;2.72;;
24715;SDS011;12822;50.124;8.678;2023-08-06T02:48:38;7.53;;;3.20;;
24715;SDS011;12822;50.124;8.678;2023-08-06T02:51:04;5.18;;;2.97;;
24715;SDS011;12822;50.124;8.678;2023-08-06T02:53:30;6.57;;;3.33;;
24715;SDS011;12822;50.124;8.678;2023-08-06T02:55:56;7.25;;;3.08;;
24715;SDS011;12822;50.124;8.678;2023-08-06T02:58:23;8.43;;;3.53;;
24715;SDS011;12822;50.124;8.678;2023-08-06T03:00:59;6.30;;;2.78;;
24715;SDS011;12822;50.124;8.678;2023-08-06T03:03:25;6.20;;;3.20;;
24715;SDS011;12822;50.124;8.678;2023-08-06T03:05:52;9.40;;;3.03;;
24715;SDS011;12822;50.124;8.678;2023-08-06T03:08:18;6.55;;;3.47;;
24715;SDS011;12822;50.124;8.678;2023-08-06T03:10:47;7.95;;;3.10;;
24715;SDS011;12822;50.124;8.678;2023-08-06T03:13:13;5.28;;;3.30;;
24715;SDS011;12822;50.124;8.678;2023-08-06T03:15:39;9.93;;;2.78;;
24715;SDS011;12822;50.124;8.678;2023-08-06T03:18:05;5.47;;;2.97;;
24715;SDS011;12822;50.124;8.678;2023-08-06T03:20:34;5.80;;;2.92;;
24715;SDS011;12822;50.124;8.678;2023-08-06T03:23:00;5.63;;;3.20;;
24715;SDS011;12822;50.124;8.678;2023-08-06T03:25:26;8.27;;;3.15;;
24715;SDS011;12822;50.124;8.678;2023-08-06T03:27:52;10.85;;;3.13;;
24715;SDS011;12822;50.124;8.678;2023-08-06T03:30:18;4.57;;;2.97;;
24715;SDS011;12822;50.124;8.678;2023-08-06T03:32:44;5.30;;;3.10;;
24715;SDS011;12822;50.124;8.678;2023-08-06T03:35:10;10.02;;;3.80;;
24715;SDS011;12822;50.124;8.678;2023-08-06T03:37:36;7.32;;;3.03;;
24715;SDS011;12822;50.124;8.678;2023-08-06T03:40:02;6.47;;;2.70;;
24715;SDS011;12822;50.124;8.678;2023-08-06T03:42:28;7.07;;;2.97;;
24715;SDS011;12822;50.124;8.678;2023-08-06T03:44:54;6.18;;;3.10;;
24715;SDS011;12822;50.124;8.678;2023-08-06T03:47:20;11.13;;;3.60;;
24715;SDS011;12822;50.124;8.678;2023-08-06T03:49:46;10.70;;;3.20;;
24715;SDS011;12822;50.124;8.678;2023-08-06T03:52:12;6.88;;;3.25;;
24715;SDS011;12822;50.124;8.678;2023-08-06T03:54:38;8.38;;;2.72;;
24715;SDS011;12822;50.124;8.678;2023-08-06T03:57:08;5.50;;;2.70;;
24715;SDS011;12822;50.124;8.678;2023-08-06T03:59:34;8.02;;;3.15;;
24715;SDS011;12822;50.124;8.678;2023-08-06T04:02:00;6.50;;;3.25;;
24715;SDS011;12822;50.124;8.678;2023-08-06T04:04:26;7.25;;;3.30;;
24715;SDS011;12822;50.124;8.678;2023-08-06T04:06:52;12.25;;;3.40;;
24715;SDS011;12822;50.124;8.678;2023-08-06T04:09:18;4.05;;;2.70;;
24715;SDS011;12822;50.124;8.678;2023-08-06T04:11:44;8.88;;;3.47;;
24715;SDS011;12822;50.124;8.678;2023-08-06T04:14:10;5.38;;;2.75;;
24715;SDS011;12822;50.124;8.678;2023-08-06T04:16:36;5.50;;;2.67;;
24715;SDS011;12822;50.124;8.678;2023-08-06T04:19:02;5.80;;;2.75;;
24715;SDS011;12822;50.124;8.678;2023-08-06T04:21:28;4.55;;;2.88;;
24715;SDS011;12822;50.124;8.678;2023-08-06T04:23:54;6.32;;;2.78;;
24715;SDS011;12822;50.124;8.678;2023-08-06T04:26:20;9.30;;;2.97;;
24715;SDS011;12822;50.124;8.678;2023-08-06T04:28:45;6.30;;;2.60;;
24715;SDS011;12822;50.124;8.678;2023-08-06T04:31:12;7.35;;;2.60;;
24715;SDS011;12822;50.124;8.678;2023-08-06T04:33:37;5.60;;;2.72;;
24715;SDS011;12822;50.124;8.678;2023-08-06T04:36:03;7.90;;;3.08;;
24715;SDS011;12822;50.124;8.678;2023-08-06T04:38:30;7.20;;;3.60;;
24715;SDS011;12822;50.124;8.678;2023-08-06T04:40:58;7.25;;;2.88;;
24715;SDS011;12822;50.124;8.678;2023-08-06T04:43:24;6.63;;;3.03;;
24715;SDS011;12822;50.124;8.678;2023-08-06T04:45:50;8.55;;;2.80;;
24715;SDS011;12822;50.124;8.678;2023-08-06T04:48:18;6.65;;;2.70;;
24715;SDS011;12822;50.124;8.678;2023-08-06T04:50:44;5.50;;;2.15;;
24715;SDS011;12822;50.124;8.678;2023-08-06T04:53:10;7.82;;;3.05;;
24715;SDS011;12822;50.124;8.678;2023-08-06T04:55:36;6.18;;;2.85;;
24715;SDS011;12822;50.124;8.678;2023-08-06T04:58:02;7.95;;;2.40;;
24715;SDS011;12822;50.124;8.678;2023-08-06T05:00:28;5.28;;;2.40;;
24715;SDS011;12822;50.124;8.678;2023-08-06T05:02:55;8.30;;;2.60;;
24715;SDS011;12822;50.124;8.678;2023-08-06T05:05:21;8.95;;;2.28;;
24715;SDS011;12822;50.124;8.678;2023-08-06T05:07:48;5.72;;;2.40;;
24715;SDS011;12822;50.124;8.678;2023-08-06T05:10:14;4.45;;;2.30;;
24715;SDS011;12822;50.124;8.678;2023-08-06T05:12:40;6.50;;;2.20;;
24715;SDS011;12822;50.124;8.678;2023-08-06T05:15:06;7.30;;;2.20;;
24715;SDS011;12822;50.124;8.678;2023-08-06T05:17:32;3.97;;;1.83;;
24715;SDS011;12822;50.124;8.678;2023-08-06T05:19:59;8.93;;;2.22;;
24715;SDS011;12822;50.124;8.678;2023-08-06T05:22:25;2.47;;;1.45;;
24715;SDS011;12822;50.124;8.678;2023-08-06T05:24:51;4.10;;;2.15;;
24715;SDS011;12822;50.124;8.678;2023-08-06T05:27:17;6.60;;;1.95;;
24715;SDS011;12822;50.124;8.678;2023-08-06T05:29:47;5.18;;;2.03;;
24715;SDS011;12822;50.124;8.678;2023-08-06T05:32:13;3.63;;;1.90;;
24715;SDS011;12822;50.124;8.678;2023-08-06T05:34:39;6.18;;;1.75;;
24715;SDS011;12822;50.124;8.678;2023-08-06T05:37:06;2.90;;;1.85;;
24715;SDS011;12822;50.124;8.678;2023-08-06T05:39:32;3.53;;;1.63;;
24715;SDS011;12822;50.124;8.678;2023-08-06T05:41:58;3.67;;;1.75;;
24715;SDS011;12822;50.124;8.678;2023-08-06T05:44:24;4.38;;;1.75;;
24715;SDS011;12822;50.124;8.678;2023-08-06T05:46:50;4.28;;;1.67;;
24715;SDS011;12822;50.124;8.678;2023-08-06T05:49:18;1.60;;;1.45;;
24715;SDS011;12822;50.124;8.678;2023-08-06T05:51:44;2.78;;;1.20;;
24715;SDS011;12822;50.124;8.678;2023-08-06T05:54:10;3.40;;;1.40;;
24715;SDS011;12822;50.124;8.678;2023-08-06T05:56:36;2.80;;;1.27;;
24715;SDS011;12822;50.124;8.678;2023-08-06T05:59:02;3.47;;;1.63;;
24715;SDS011;12822;50.124;8.678;2023-08-06T06:01:28;4.30;;;2.03;;
24715;SDS011;12822;50.124;8.678;2023-08-06T06:03:54;3.70;;;1.45;;
24715;SDS011;12822;50.124;8.678;2023-08-06T06:06:20;4.57;;;1.70;;
24715;SDS011;12822;50.124;8.678;2023-08-06T06:08:45;3.88;;;1.65;;
24715;SDS011;12822;50.124;8.678;2023-08-06T06:11:12;2.42;;;1.98;;
24715;SDS011;12822;50.124;8.678;2023-08-06T06:13:37;2.92;;;1.45;;
24715;SDS011;12822;50.124;8.678;2023-08-06T06:16:04;2.85;;;1.63;;
24715;SDS011;12822;50.124;8.678;2023-08-06T06:18:30;2.88;;;1.50;;
24715;SDS011;12822;50.124;8.678;2023-08-06T06:20:56;2.65;;;1.52;;
24715;SDS011;12822;50.124;8.678;2023-08-06T06:23:22;3.58;;;1.45;;
24715;SDS011;12822;50.124;8.678;2023-08-06T06:25:49;3.47;;;1.50;;
24715;SDS011;12822;50.124;8.678;2023-08-06T06:28:18;3.17;;;1.42;;
24715;SDS011;12822;50.124;8.678;2023-08-06T06:30:44;3.20;;;1.20;;
24715;SDS011;12822;50.124;8.678;2023-08-06T06:33:10;1.38;;;1.00;;
24715;SDS011;12822;50.124;8.678;2023-08-06T06:35:36;1.73;;;0.90;;
24715;SDS011;12822;50.124;8.678;2023-08-06T06:38:02;2.47;;;1.08;;
24715;SDS011;12822;50.124;8.678;2023-08-06T06:40:28;2.42;;;1.13;;
24715;SDS011;12822;50.124;8.678;2023-08-06T06:42:56;2.60;;;1.00;;
24715;SDS011;12822;50.124;8.678;2023-08-06T06:45:22;2.75;;;1.00;;
24715;SDS011;12822;50.124;8.678;2023-08-06T06:47:48;1.38;;;0.55;;
24715;SDS011;12822;50.124;8.678;2023-08-06T06:50:14;1.88;;;0.80;;
24715;SDS011;12822;50.124;8.678;2023-08-06T06:52:41;2.90;;;0.80;;
24715;SDS011;12822;50.124;8.678;2023-08-06T06:55:07;2.08;;;0.80;;
24715;SDS011;12822;50.124;8.678;2023-08-06T06:57:33;3.92;;;0.80;;
24715;SDS011;12822;50.124;8.678;2023-08-06T06:59:59;3.90;;;0.98;;
24715;SDS011;12822;50.124;8.678;2023-08-06T07:02:25;2.85;;;0.90;;
24715;SDS011;12822;50.124;8.678;2023-08-06T07:04:51;2.58;;;0.75;;
24715;SDS011;12822;50.124;8.678;2023-08-06T07:07:17;3.25;;;0.93;;
24715;SDS011;12822;50.124;8.678;2023-08-06T07:09:43;0.98;;;0.75;;
24715;SDS011;12822;50.124;8.678;2023-08-06T07:12:10;1.90;;;1.08;;
24715;SDS011;12822;50.124;8.678;2023-08-06T07:14:36;2.47;;;0.80;;
24715;SDS011;12822;50.124;8.678;2023-08-06T07:17:02;1.08;;;0.70;;
24715;SDS011;12822;50.124;8.678;2023-08-06T07:19:28;2.70;;;0.80;;
24715;SDS011;12822;50.124;8.678;2023-08-06T07:21:54;3.35;;;0.85;;
24715;SDS011;12822;50.124;8.678;2023-08-06T07:24:21;4.00;;;0.80;;
24715;SDS011;12822;50.124;8.678;2023-08-06T07:26:47;2.63;;;0.77;;
24715;SDS011;12822;50.124;8.678;2023-08-06T07:29:13;2.00;;;0.95;;
24715;SDS011;12822;50.124;8.678;2023-08-06T07:31:44;1.73;;;0.98;;
24715;SDS011;12822;50.124;8.678;2023-08-06T07:34:10;0.88;;;0.60;;
24715;SDS011;12822;50.124;8.678;2023-08-06T07:36:37;1.38;;;0.90;;
24715;SDS011;12822;50.124;8.678;2023-08-06T07:39:03;2.05;;;0.73;;
24715;SDS011;12822;50.124;8.678;2023-08-06T07:41:31;3.13;;;1.05;;
24715;SDS011;12822;50.124;8.678;2023-08-06T07:43:57;2.80;;;0.60;;
24715;SDS011;12822;50.124;8.678;2023-08-06T07:46:23;1.77;;;0.90;;
24715;SDS011;12822;50.124;8.678;2023-08-06T07:48:49;1.08;;;0.43;;
24715;SDS011;12822;50.124;8.678;2023-08-06T07:51:15;2.30;;;0.73;;
24715;SDS011;12822;50.124;8.678;2023-08-06T07:53:41;2.25;;;0.60;;
24715;SDS011;12822;50.124;8.678;2023-08-06T07:56:07;0.82;;;0.45;;
24715;SDS011;12822;50.124;8.678;2023-08-06T07:58:33;1.02;;;0.60;;
24715;SDS011;12822;50.124;8.678;2023-08-06T08:00:59;1.70;;;0.65;;
24715;SDS011;12822;50.124;8.678;2023-08-06T08:03:25;1.50;;;0.60;;
24715;SDS011;12822;50.124;8.678;2023-08-06T08:05:53;1.88;;;0.55;;
24715;SDS011;12822;50.124;8.678;2023-08-06T08:08:22;1.88;;;0.60;;
24715;SDS011;12822;50.124;8.678;2023-08-06T08:10:48;1.50;;;0.60;;
24715;SDS011;12822;50.124;8.678;2023-08-06T08:13:14;0.65;;;0.40;;
24715;SDS011;12822;50.124;8.678;2023-08-06T08:15:40;1.95;;;0.40;;
24715;SDS011;12822;50.124;8.678;2023-08-06T08:18:06;4.15;;;0.80;;
24715;SDS011;12822;50.124;8.678;2023-08-06T08:20:32;0.85;;;0.50;;
24715;SDS011;12822;50.124;8.678;2023-08-06T08:23:00;1.70;;;0.70;;
24715;SDS011;12822;50.124;8.678;2023-08-06T08:25:26;1.48;;;0.55;;
24715;SDS011;12822;50.124;8.678;2023-08-06T08:27:53;3.47;;;0.80;;
24715;SDS011;12822;50.124;8.678;2023-08-06T08:30:20;1.25;;;0.50;;
24715;SDS011;12822;50.124;8.678;2023-08-06T08:32:45;1.73;;;0.90;;
24715;SDS011;12822;50.124;8.678;2023-08-06T08:35:11;1.75;;;0.63;;
24715;SDS011;12822;50.124;8.678;2023-08-06T08:37:38;1.23;;;0.70;;
24715;SDS011;12822;50.124;8.678;2023-08-06T08:40:05;3.13;;;0.68;;
24715;SDS011;12822;50.124;8.678;2023-08-06T08:42:31;1.25;;;0.35;;
24715;SDS011;12822;50.124;8.678;2023-08-06T08:44:57;2.67;;;0.70;;
24715;SDS011;12822;50.124;8.678;2023-08-06T08:47:24;3.58;;;1.05;;
24715;SDS011;12822;50.124;8.678;2023-08-06T08:49:52;1.95;;;0.90;;
24715;SDS011;12822;50.124;8.678;2023-08-06T08:52:22;1.95;;;0.68;;
24715;SDS011;12822;50.124;8.678;2023-08-06T08:54:49;3.58;;;0.70;;
24715;SDS011;12822;50.124;8.678;2023-08-06T08:57:17;3.25;;;0.88;;
24715;SDS011;12822;50.124;8.678;2023-08-06T08:59:43;2.95;;;0.50;;
24715;SDS011;12822;50.124;8.678;2023-08-06T09:02:12;3.70;;;0.60;;
24715;SDS011;12822;50.124;8.678;2023-08-06T09:04:40;0.30;;;0.25;;
24715;SDS011;12822;50.124;8.678;2023-08-06T09:07:07;2.22;;;0.88;;
24715;SDS011;12822;50.124;8.678;2023-08-06T09:09:35;3.90;;;1.10;;
24715;SDS011;12822;50.124;8.678;2023-08-06T09:12:06;3.67;;;1.38;;
24715;SDS011;12822;50.124;8.678;2023-08-06T09:14:36;0.88;;;0.45;;
24715;SDS011;12822;50.124;8.678;2023-08-06T09:17:02;1.95;;;0.90;;
24715;SDS011;12822;50.124;8.678;2023-08-06T09:19:29;2.47;;;0.60;;
24715;SDS011;12822;50.124;8.678;2023-08-06T09:21:55;1.77;;;0.73;;
24715;SDS011;12822;50.124;8.678;2023-08-06T09:24:22;1.77;;;0.73;;
24715;SDS011;12822;50.124;8.678;2023-08-06T09:26:48;4.63;;;0.40;;
24715;SDS011;12822;50.124;8.678;2023-08-06T09:29:14;0.82;;;0.50;;
24715;SDS011;12822;50.124;8.678;2023-08-06T09:31:43;2.22;;;0.60;;
24715;SDS011;12822;50.124;8.678;2023-08-06T09:34:16;2.47;;;0.35;;
24715;SDS011;12822;50.124;8.678;2023-08-06T09:36:43;3.95;;;0.70;;
24715;SDS011;12822;50.124;8.678;2023-08-06T09:39:17;0.63;;;0.50;;
24715;SDS011;12822;50.124;8.678;2023-08-06T09:41:44;2.38;;;1.10;;
24715;SDS011;12822;50.124;8.678;2023-08-06T09:44:16;3.72;;;2.15;;
24715;SDS011;12822;50.124;8.678;2023-08-06T09:46:46;4.80;;;2.05;;
24715;SDS011;12822;50.124;8.678;2023-08-06T09:49:13;0.70;;;0.30;;
24715;SDS011;12822;50.124;8.678;2023-08-06T09:51:39;1.13;;;0.50;;
24715;SDS011;12822;50.124;8.678;2023-08-06T09:54:05;1.10;;;0.55;;
24715;SDS011;12822;50.124;8.678;2023-08-06T09:56:33;1.17;;;0.80;;
24715;SDS011;12822;50.124;8.678;2023-08-06T09:59:03;2.47;;;0.80;;
24715;SDS011;12822;50.124;8.678;2023-08-06T10:01:34;2.00;;;1.23;;
24715;SDS011;12822;50.124;8.678;2023-08-06T10:04:03;1.35;;;0.95;;
24715;SDS011;12822;50.124;8.678;2023-08-06T10:06:31;1.20;;;0.80;;
24715;SDS011;12822;50.124;8.678;2023-08-06T10:08:59;1.65;;;0.60;;
24715;SDS011;12822;50.124;8.678;2023-08-06T10:11:25;1.95;;;0.65;;
24715;SDS011;12822;50.124;8.678;2023-08-06T10:13:52;0.88;;;0.60;;
24715;SDS011;12822;50.124;8.678;2023-08-06T10:16:20;3.78;;;0.70;;
24715;SDS011;12822;50.124;8.678;2023-08-06T10:18:46;0.70;;;0.45;;
24715;SDS011;12822;50.124;8.678;2023-08-06T10:21:15;1.63;;;0.60;;
24715;SDS011;12822;50.124;8.678;2023-08-06T10:23:41;1.15;;;0.60;;
24715;SDS011;12822;50.124;8.678;2023-08-06T10:26:07;2.30;;;0.63;;
24715;SDS011;12822;50.124;8.678;2023-08-06T10:28:34;1.33;;;0.65;;
24715;SDS011;12822;50.124;8.678;2023-08-06T10:31:01;1.42;;;0.45;;
24715;SDS011;12822;50.124;8.678;2023-08-06T10:36:10;1.23;;;0.40;;
24715;SDS011;12822;50.124;8.678;2023-08-06T10:38:50;0.40;;;0.30;;
24715;SDS011;12822;50.124;8.678;2023-08-06T10:41:23;0.80;;;0.50;;
24715;SDS011;12822;50.124;8.678;2023-08-06T10:43:58;0.63;;;0.47;;
24715;SDS011;12822;50.124;8.678;2023-08-06T10:46:32;0.63;;;0.30;;
24715;SDS011;12822;50.124;8.678;2023-08-06T10:48:58;1.35;;;0.68;;
24715;SDS011;12822;50.124;8.678;2023-08-06T10:51:24;1.65;;;0.60;;
24715;SDS011;12822;50.124;8.678;2023-08-06T10:53:50;1.60;;;0.77;;
24715;SDS011;12822;50.124;8.678;2023-08-06T10:56:21;1.58;;;0.50;;
24715;SDS011;12822;50.124;8.678;2023-08-06T10:58:47;0.70;;;0.43;;
24715;SDS011;12822;50.124;8.678;2023-08-06T11:01:13;1.77;;;0.70;;
24715;SDS011;12822;50.124;8.678;2023-08-06T11:03:40;1.80;;;0.52;;
24715;SDS011;12822;50.124;8.678;2023-08-06T11:06:07;2.28;;;0.32;;
24715;SDS011;12822;50.124;8.678;2023-08-06T11:08:34;0.52;;;0.45;;
24715;SDS011;12822;50.124;8.678;2023-08-06T11:13:41;1.15;;;0.35;;
24715;SDS011;12822;50.124;8.678;2023-08-06T11:16:07;0.50;;;0.30;;
24715;SDS011;12822;50.124;8.678;2023-08-06T11:18:33;0.30;;;0.30;;
24715;SDS011;12822;50.124;8.678;2023-08-06T11:21:00;0.47;;;0.47;;
24715;SDS011;12822;50.124;8.678;2023-08-06T11:23:26;0.70;;;0.30;;
24715;SDS011;12822;50.124;8.678;2023-08-06T11:25:53;0.70;;;0.50;;
24715;SDS011;12822;50.124;8.678;2023-08-06T11:28:20;0.52;;;0.45;;
24715;SDS011;12822;50.124;8.678;2023-08-06T11:30:49;0.93;;;0.40;;
24715;SDS011;12822;50.124;8.678;2023-08-06T11:33:22;2.05;;;0.50;;
24715;SDS011;12822;50.124;8.678;2023-08-06T11:35:51;0.57;;;0.30;;
24715;SDS011;12822;50.124;8.678;2023-08-06T11:38:17;0.45;;;0.30;;
24715;SDS011;12822;50.124;8.678;2023-08-06T11:40:50;1.48;;;0.32;;
24715;SDS011;12822;50.124;8.678;2023-08-06T11:43:17;0.80;;;0.47;;
24715;SDS011;12822;50.124;8.678;2023-08-06T11:45:44;0.43;;;0.43;;
24715;SDS011;12822;50.124;8.678;2023-08-06T11:48:10;0.30;;;0.30;;
24715;SDS011;12822;50.124;8.678;2023-08-06T11:50:39;0.80;;;0.40;;
24715;SDS011;12822;50.124;8.678;2023-08-06T11:53:05;3.88;;;1.00;;
24715;SDS011;12822;50.124;8.678;2023-08-06T11:55:31;0.68;;;0.43;;
24715;SDS011;12822;50.124;8.678;2023-08-06T11:57:58;2.17;;;0.80;;
24715;SDS011;12822;50.124;8.678;2023-08-06T12:00:24;0.43;;;0.28;;
24715;SDS011;12822;50.124;8.678;2023-08-06T12:02:51;1.50;;;0.40;;
24715;SDS011;12822;50.124;8.678;2023-08-06T12:05:21;2.28;;;0.43;;
24715;SDS011;12822;50.124;8.678;2023-08-06T12:07:54;0.93;;;0.43;;
24715;SDS011;12822;50.124;8.678;2023-08-06T12:10:21;0.45;;;0.30;;
24715;SDS011;12822;50.124;8.678;2023-08-06T12:12:48;1.80;;;0.35;;
24715;SDS011;12822;50.124;8.678;2023-08-06T12:15:15;0.55;;;0.32;;
24715;SDS011;12822;50.124;8.678;2023-08-06T12:17:41;2.35;;;0.50;;
24715;SDS011;12822;50.124;8.678;2023-08-06T12:20:08;1.83;;;0.40;;
24715;SDS011;12822;50.124;8.678;2023-08-06T12:22:34;0.75;;;0.38;;
24715;SDS011;12822;50.124;8.678;2023-08-06T12:25:01;1.15;;;0.47;;
24715;SDS011;12822;50.124;8.678;2023-08-06T12:27:28;1.27;;;0.22;;
24715;SDS011;12822;50.124;8.678;2023-08-06T12:29:54;0.50;;;0.40;;
24715;SDS011;12822;50.124;8.678;2023-08-06T12:32:20;2.15;;;0.30;;
24715;SDS011;12822;50.124;8.678;2023-08-06T12:34:47;0.73;;;0.30;;
24715;SDS011;12822;50.124;8.678;2023-08-06T12:37:13;1.73;;;0.38;;
24715;SDS011;12822;50.124;8.678;2023-08-06T12:39:39;1.85;;;0.28;;
24715;SDS011;12822;50.124;8.678;2023-08-06T12:42:05;1.38;;;0.38;;
24715;SDS011;12822;50.124;8.678;2023-08-06T12:44:31;1.60;;;0.35;;
24715;SDS011;12822;50.124;8.678;2023-08-06T12:46:58;1.75;;;0.50;;
24715;SDS011;12822;50.124;8.678;2023-08-06T12:49:25;0.95;;;0.50;;
24715;SDS011;12822;50.124;8.678;2023-08-06T12:51:51;0.40;;;0.38;;
24715;SDS011;12822;50.124;8.678;2023-08-06T12:54:18;0.45;;;0.32;;
24715;SDS011;12822;50.124;8.678;2023-08-06T12:56:44;0.40;;;0.40;;
24715;SDS011;12822;50.124;8.678;2023-08-06T12:59:11;0.38;;;0.38;;
24715;SDS011;12822;50.124;8.678;2023-08-06T13:01:37;1.92;;;0.60;;
24715;SDS011;12822;50.124;8.678;2023-08-06T13:04:03;0.70;;;0.40;;
24715;SDS011;12822;50.124;8.678;2023-08-06T13:06:29;1.35;;;0.55;;
24715;SDS011;12822;50.124;8.678;2023-08-06T13:08:56;0.38;;;0.30;;
24715;SDS011;12822;50.124;8.678;2023-08-06T13:11:23;1.13;;;0.40;;
24715;SDS011;12822;50.124;8.678;2023-08-06T13:13:49;0.80;;;0.40;;
24715;SDS011;12822;50.124;8.678;2023-08-06T13:16:15;1.00;;;0.30;;
24715;SDS011;12822;50.124;8.678;2023-08-06T13:18:41;0.40;;;0.40;;
24715;SDS011;12822;50.124;8.678;2023-08-06T13:21:06;1.38;;;0.32;;
24715;SDS011;12822;50.124;8.678;2023-08-06T13:23:33;1.13;;;0.77;;
24715;SDS011;12822;50.124;8.678;2023-08-06T13:25:59;0.50;;;0.32;;
24715;SDS011;12822;50.124;8.678;2023-08-06T13:28:25;1.45;;;0.73;;
24715;SDS011;12822;50.124;8.678;2023-08-06T13:30:50;0.80;;;0.57;;
24715;SDS011;12822;50.124;8.678;2023-08-06T13:33:16;1.50;;;0.52;;
24715;SDS011;12822;50.124;8.678;2023-08-06T13:35:42;1.27;;;0.52;;
24715;SDS011;12822;50.124;8.678;2023-08-06T13:38:08;3.88;;;0.88;;
24715;SDS011;12822;50.124;8.678;2023-08-06T13:40:35;2.78;;;0.40;;
24715;SDS011;12822;50.124;8.678;2023-08-06T13:43:01;2.50;;;0.40;;
24715;SDS011;12822;50.124;8.678;2023-08-06T13:45:27;2.05;;;0.57;;
24715;SDS011;12822;50.124;8.678;2023-08-06T13:47:53;4.15;;;0.60;;
24715;SDS011;12822;50.124;8.678;2023-08-06T13:50:19;0.50;;;0.43;;
24715;SDS011;12822;50.124;8.678;2023-08-06T13:52:47;2.25;;;0.80;;
24715;SDS011;12822;50.124;8.678;2023-08-06T13:55:13;1.55;;;0.73;;
24715;SDS011;12822;50.124;8.678;2023-08-06T13:57:39;10.63;;;0.75;;
24715;SDS011;12822;50.124;8.678;2023-08-06T14:00:05;1.80;;;0.40;;
24715;SDS011;12822;50.124;8.678;2023-08-06T14:02:31;1.77;;;0.63;;
24715;SDS011;12822;50.124;8.678;2023-08-06T14:04:57;2.83;;;0.43;;
24715;SDS011;12822;50.124;8.678;2023-08-06T14:07:23;1.60;;;0.80;;
24715;SDS011;12822;50.124;8.678;2023-08-06T14:09:49;1.15;;;0.35;;
24715;SDS011;12822;50.124;8.678;2023-08-06T14:12:15;1.17;;;0.43;;
24715;SDS011;12822;50.124;8.678;2023-08-06T14:14:41;1.55;;;0.52;;
24715;SDS011;12822;50.124;8.678;2023-08-06T14:17:08;1.65;;;0.60;;
24715;SDS011;12822;50.124;8.678;2023-08-06T14:19:34;1.45;;;0.60;;
24715;SDS011;12822;50.124;8.678;2023-08-06T14:22:00;1.30;;;0.80;;
24715;SDS011;12822;50.124;8.678;2023-08-06T14:24:26;1.23;;;0.43;;
24715;SDS011;12822;50.124;8.678;2023-08-06T14:26:51;1.45;;;0.50;;
24715;SDS011;12822;50.124;8.678;2023-08-06T14:29:18;0.73;;;0.45;;
24715;SDS011;12822;50.124;8.678;2023-08-06T14:31:44;1.20;;;0.52;;
24715;SDS011;12822;50.124;8.678;2023-08-06T14:34:10;2.53;;;0.40;;
24715;SDS011;12822;50.124;8.678;2023-08-06T14:36:36;0.52;;;0.40;;
24715;SDS011;12822;50.124;8.678;2023-08-06T14:39:02;6.75;;;1.08;;
24715;SDS011;12822;50.124;8.678;2023-08-06T14:41:28;1.65;;;0.90;;
24715;SDS011;12822;50.124;8.678;2023-08-06T14:43:54;2.40;;;0.68;;
24715;SDS011;12822;50.124;8.678;2023-08-06T14:46:20;2.42;;;0.98;;
24715;SDS011;12822;50.124;8.678;2023-08-06T14:48:46;1.85;;;0.80;;
24715;SDS011;12822;50.124;8.678;2023-08-06T14:51:12;1.65;;;0.68;;
24715;SDS011;12822;50.124;8.678;2023-08-06T14:53:39;1.63;;;0.65;;
24715;SDS011;12822;50.124;8.678;2023-08-06T14:56:05;2.38;;;1.00;;
24715;SDS011;12822;50.124;8.678;2023-08-06T14:58:31;1.00;;;0.52;;